Raber, Indiana
Current Conditions -  °F | °C
As of 4:54 AM on Friday 28 Nov 2014 (Local Time) from KFWA Reporting Station
Broken Clouds Broken Clouds  
Wind Chill: 11°   Ceiling: 15000
Heat Index: 20°   Visibility: 10mi
Dew Point: 15°   Wind: 7mph
Humidity: 81%   Direction: 240°WSW
Pressure: 30.37"   Gusts: NA
Location:  41.1479°N, 85.4772°W
Report Text: KFWA 280954Z 24006KT 10SM FEW030 BKN150 M07/M09 A3037 RMK AO2 SLP296 T10671094
Loading
Personal Weather Stations






























Interactive Weather Map New forecast layout! Learn more

10-Day Weather Forecast

Advertisements
Track Severe Weather on mobile